FOD weather

Fort Dodge Regional Airport
Fort Dodge, Iowa, United States

Public forecast

Using degrees Fahrenheit for public forecast. Weather courtesy of forecast.io.

METAR (pilot weather report)

Retrieved 2019/07/17 17:15 UTC (23 minutes ago):

KFOD 171715Z AUTO 16005KT 10SM FEW007 A2990 RMK AO2 RAE04 P0000 FZRANO $

TAF (pilot weather forecast)

Retrieved 2019/07/17 12:22 UTC (5 hours ago):

TAF KFOD 171120Z 1712/1812 13004KT P6SM SCT050 FM171400 14007KT P6SM VCSH BKN200 TEMPO 1714/1716 3SM -TSRA BR OVC025CB FM171700 15013KT P6SM SCT035 BKN250 FM180000 17012KT P6SM BKN200 FM180400 18012KT P6SM SCT250 WS020/20045KT